sensor_id;sensor_type;location;lat;lon;timestamp;P1;durP1;ratioP1;P2;durP2;ratioP2
52043;SDS011;38053;53.100;6.078;2022-11-15T00:00:23;38.65;;;23.90;;
52043;SDS011;38053;53.100;6.078;2022-11-15T00:02:58;38.92;;;24.88;;
52043;SDS011;38053;53.100;6.078;2022-11-15T00:05:42;38.35;;;24.73;;
52043;SDS011;38053;53.100;6.078;2022-11-15T00:11:22;38.05;;;24.05;;
52043;SDS011;38053;53.100;6.078;2022-11-15T00:14:04;37.70;;;24.85;;
52043;SDS011;38053;53.100;6.078;2022-11-15T00:16:44;37.55;;;25.98;;
52043;SDS011;38053;53.100;6.078;2022-11-15T00:19:16;37.47;;;25.25;;
52043;SDS011;38053;53.100;6.078;2022-11-15T00:21:55;39.35;;;25.70;;
52043;SDS011;38053;53.100;6.078;2022-11-15T00:24:51;38.67;;;24.38;;
52043;SDS011;38053;53.100;6.078;2022-11-15T00:27:26;36.35;;;24.08;;
52043;SDS011;38053;53.100;6.078;2022-11-15T00:30:23;38.88;;;25.23;;
52043;SDS011;38053;53.100;6.078;2022-11-15T00:32:52;37.42;;;22.73;;
52043;SDS011;38053;53.100;6.078;2022-11-15T00:35:21;34.60;;;22.50;;
52043;SDS011;38053;53.100;6.078;2022-11-15T00:37:53;37.63;;;24.85;;
52043;SDS011;38053;53.100;6.078;2022-11-15T00:40:19;35.80;;;21.67;;
52043;SDS011;38053;53.100;6.078;2022-11-15T00:42:51;36.55;;;23.88;;
52043;SDS011;38053;53.100;6.078;2022-11-15T00:45:22;35.47;;;23.13;;
52043;SDS011;38053;53.100;6.078;2022-11-15T00:48:00;33.97;;;21.45;;
52043;SDS011;38053;53.100;6.078;2022-11-15T00:50:29;31.48;;;22.35;;
52043;SDS011;38053;53.100;6.078;2022-11-15T00:52:57;30.42;;;20.92;;
52043;SDS011;38053;53.100;6.078;2022-11-15T00:55:41;31.42;;;21.88;;
52043;SDS011;38053;53.100;6.078;2022-11-15T00:58:21;33.60;;;23.23;;
52043;SDS011;38053;53.100;6.078;2022-11-15T01:03:47;36.58;;;22.85;;
52043;SDS011;38053;53.100;6.078;2022-11-15T01:06:32;34.25;;;21.55;;
52043;SDS011;38053;53.100;6.078;2022-11-15T01:09:13;33.58;;;22.65;;
52043;SDS011;38053;53.100;6.078;2022-11-15T01:11:45;36.22;;;23.35;;
52043;SDS011;38053;53.100;6.078;2022-11-15T01:14:17;38.58;;;22.80;;
52043;SDS011;38053;53.100;6.078;2022-11-15T01:17:17;33.42;;;22.98;;
52043;SDS011;38053;53.100;6.078;2022-11-15T01:19:52;33.33;;;22.67;;
52043;SDS011;38053;53.100;6.078;2022-11-15T01:22:24;31.98;;;22.83;;
52043;SDS011;38053;53.100;6.078;2022-11-15T01:24:58;33.85;;;23.95;;
52043;SDS011;38053;53.100;6.078;2022-11-15T01:27:24;36.53;;;24.17;;
52043;SDS011;38053;53.100;6.078;2022-11-15T01:29:50;39.70;;;26.35;;
52043;SDS011;38053;53.100;6.078;2022-11-15T01:32:16;37.40;;;24.70;;
52043;SDS011;38053;53.100;6.078;2022-11-15T01:34:42;38.50;;;25.48;;
52043;SDS011;38053;53.100;6.078;2022-11-15T01:37:08;35.75;;;24.52;;
52043;SDS011;38053;53.100;6.078;2022-11-15T01:39:33;40.15;;;25.67;;
52043;SDS011;38053;53.100;6.078;2022-11-15T01:41:59;37.47;;;25.48;;
52043;SDS011;38053;53.100;6.078;2022-11-15T01:47:05;37.47;;;23.88;;
52043;SDS011;38053;53.100;6.078;2022-11-15T01:49:57;44.00;;;25.58;;
52043;SDS011;38053;53.100;6.078;2022-11-15T01:52:25;38.22;;;24.55;;
52043;SDS011;38053;53.100;6.078;2022-11-15T01:55:04;39.28;;;24.48;;
52043;SDS011;38053;53.100;6.078;2022-11-15T01:57:43;40.65;;;24.33;;
52043;SDS011;38053;53.100;6.078;2022-11-15T02:00:13;38.10;;;23.65;;
52043;SDS011;38053;53.100;6.078;2022-11-15T02:02:39;40.10;;;25.27;;
52043;SDS011;38053;53.100;6.078;2022-11-15T02:05:06;35.80;;;22.38;;
52043;SDS011;38053;53.100;6.078;2022-11-15T02:07:32;36.50;;;23.27;;
52043;SDS011;38053;53.100;6.078;2022-11-15T02:10:07;34.53;;;22.65;;
52043;SDS011;38053;53.100;6.078;2022-11-15T02:12:35;30.83;;;21.83;;
52043;SDS011;38053;53.100;6.078;2022-11-15T02:15:02;34.22;;;21.60;;
52043;SDS011;38053;53.100;6.078;2022-11-15T02:17:33;37.53;;;22.27;;
52043;SDS011;38053;53.100;6.078;2022-11-15T02:31:40;41.88;;;24.48;;
52043;SDS011;38053;53.100;6.078;2022-11-15T02:34:24;40.58;;;23.40;;
52043;SDS011;38053;53.100;6.078;2022-11-15T02:37:16;40.20;;;24.33;;
52043;SDS011;38053;53.100;6.078;2022-11-15T02:40:31;39.63;;;23.95;;
52043;SDS011;38053;53.100;6.078;2022-11-15T02:43:00;41.53;;;23.77;;
52043;SDS011;38053;53.100;6.078;2022-11-15T02:45:51;36.28;;;21.92;;
52043;SDS011;38053;53.100;6.078;2022-11-15T02:48:26;47.40;;;26.73;;
52043;SDS011;38053;53.100;6.078;2022-11-15T02:50:55;45.75;;;26.08;;
52043;SDS011;38053;53.100;6.078;2022-11-15T02:53:25;44.05;;;24.88;;
52043;SDS011;38053;53.100;6.078;2022-11-15T02:55:52;47.53;;;25.95;;
52043;SDS011;38053;53.100;6.078;2022-11-15T03:00:55;39.75;;;22.88;;
52043;SDS011;38053;53.100;6.078;2022-11-15T03:06:32;41.63;;;23.23;;
52043;SDS011;38053;53.100;6.078;2022-11-15T03:09:09;43.80;;;23.42;;
52043;SDS011;38053;53.100;6.078;2022-11-15T03:11:56;41.25;;;23.95;;
52043;SDS011;38053;53.100;6.078;2022-11-15T03:14:34;49.72;;;25.83;;
52043;SDS011;38053;53.100;6.078;2022-11-15T03:19:48;44.17;;;24.48;;
52043;SDS011;38053;53.100;6.078;2022-11-15T03:22:17;48.28;;;27.25;;
52043;SDS011;38053;53.100;6.078;2022-11-15T03:24:46;50.28;;;26.48;;
52043;SDS011;38053;53.100;6.078;2022-11-15T03:27:17;52.33;;;28.17;;
52043;SDS011;38053;53.100;6.078;2022-11-15T03:32:19;58.47;;;27.15;;
52043;SDS011;38053;53.100;6.078;2022-11-15T03:34:50;54.17;;;28.10;;
52043;SDS011;38053;53.100;6.078;2022-11-15T03:37:17;55.38;;;27.35;;
52043;SDS011;38053;53.100;6.078;2022-11-15T03:39:47;60.78;;;29.48;;
52043;SDS011;38053;53.100;6.078;2022-11-15T03:47:34;59.55;;;29.40;;
52043;SDS011;38053;53.100;6.078;2022-11-15T03:50:14;68.57;;;30.75;;
52043;SDS011;38053;53.100;6.078;2022-11-15T03:52:44;59.63;;;28.83;;
52043;SDS011;38053;53.100;6.078;2022-11-15T03:55:13;72.43;;;33.17;;
52043;SDS011;38053;53.100;6.078;2022-11-15T03:57:41;70.72;;;31.17;;
52043;SDS011;38053;53.100;6.078;2022-11-15T04:00:09;67.88;;;30.60;;
52043;SDS011;38053;53.100;6.078;2022-11-15T04:02:36;70.57;;;33.80;;
52043;SDS011;38053;53.100;6.078;2022-11-15T04:05:02;63.45;;;30.42;;
52043;SDS011;38053;53.100;6.078;2022-11-15T04:07:28;68.45;;;31.38;;
52043;SDS011;38053;53.100;6.078;2022-11-15T04:09:54;81.07;;;33.25;;
52043;SDS011;38053;53.100;6.078;2022-11-15T04:12:38;76.82;;;32.88;;
52043;SDS011;38053;53.100;6.078;2022-11-15T04:15:08;76.22;;;31.95;;
52043;SDS011;38053;53.100;6.078;2022-11-15T04:17:46;75.38;;;34.45;;
52043;SDS011;38053;53.100;6.078;2022-11-15T04:20:17;73.35;;;32.97;;
52043;SDS011;38053;53.100;6.078;2022-11-15T04:23:08;71.53;;;31.88;;
52043;SDS011;38053;53.100;6.078;2022-11-15T04:25:56;71.05;;;31.92;;
52043;SDS011;38053;53.100;6.078;2022-11-15T04:28:25;71.55;;;33.83;;
52043;SDS011;38053;53.100;6.078;2022-11-15T04:30:51;72.40;;;31.90;;
52043;SDS011;38053;53.100;6.078;2022-11-15T04:33:17;75.30;;;30.38;;
52043;SDS011;38053;53.100;6.078;2022-11-15T04:35:48;82.82;;;35.05;;
52043;SDS011;38053;53.100;6.078;2022-11-15T04:38:34;73.60;;;32.33;;
52043;SDS011;38053;53.100;6.078;2022-11-15T04:41:00;67.03;;;31.85;;
52043;SDS011;38053;53.100;6.078;2022-11-15T04:43:30;73.28;;;33.72;;
52043;SDS011;38053;53.100;6.078;2022-11-15T04:45:55;77.82;;;31.92;;
52043;SDS011;38053;53.100;6.078;2022-11-15T04:48:21;84.60;;;35.20;;
52043;SDS011;38053;53.100;6.078;2022-11-15T04:50:47;86.90;;;34.70;;
52043;SDS011;38053;53.100;6.078;2022-11-15T04:53:17;84.03;;;36.50;;
52043;SDS011;38053;53.100;6.078;2022-11-15T04:55:46;71.03;;;35.45;;
52043;SDS011;38053;53.100;6.078;2022-11-15T04:58:14;81.65;;;34.00;;
52043;SDS011;38053;53.100;6.078;2022-11-15T05:00:40;91.18;;;35.35;;
52043;SDS011;38053;53.100;6.078;2022-11-15T05:03:08;78.95;;;34.63;;
52043;SDS011;38053;53.100;6.078;2022-11-15T05:05:53;76.80;;;35.10;;
52043;SDS011;38053;53.100;6.078;2022-11-15T05:08:19;84.18;;;36.42;;
52043;SDS011;38053;53.100;6.078;2022-11-15T05:10:47;88.45;;;36.97;;
52043;SDS011;38053;53.100;6.078;2022-11-15T05:13:16;82.47;;;37.72;;
52043;SDS011;38053;53.100;6.078;2022-11-15T05:15:42;79.43;;;36.80;;
52043;SDS011;38053;53.100;6.078;2022-11-15T05:18:08;87.22;;;39.42;;
52043;SDS011;38053;53.100;6.078;2022-11-15T05:20:34;83.95;;;37.80;;
52043;SDS011;38053;53.100;6.078;2022-11-15T05:23:00;88.13;;;39.40;;
52043;SDS011;38053;53.100;6.078;2022-11-15T05:25:26;88.47;;;39.30;;
52043;SDS011;38053;53.100;6.078;2022-11-15T05:27:52;94.72;;;39.72;;
52043;SDS011;38053;53.100;6.078;2022-11-15T05:30:18;95.65;;;40.65;;
52043;SDS011;38053;53.100;6.078;2022-11-15T05:32:44;91.43;;;39.95;;
52043;SDS011;38053;53.100;6.078;2022-11-15T05:35:12;97.18;;;39.60;;
52043;SDS011;38053;53.100;6.078;2022-11-15T05:37:43;104.53;;;42.03;;
52043;SDS011;38053;53.100;6.078;2022-11-15T05:40:09;91.10;;;42.63;;
52043;SDS011;38053;53.100;6.078;2022-11-15T05:42:35;98.05;;;43.05;;
52043;SDS011;38053;53.100;6.078;2022-11-15T05:45:02;108.35;;;44.10;;
52043;SDS011;38053;53.100;6.078;2022-11-15T05:47:29;106.88;;;42.60;;
52043;SDS011;38053;53.100;6.078;2022-11-15T05:49:55;112.70;;;42.72;;
52043;SDS011;38053;53.100;6.078;2022-11-15T05:52:24;115.75;;;45.10;;
52043;SDS011;38053;53.100;6.078;2022-11-15T05:54:52;105.20;;;43.53;;
52043;SDS011;38053;53.100;6.078;2022-11-15T05:57:21;110.65;;;43.92;;
52043;SDS011;38053;53.100;6.078;2022-11-15T05:59:47;110.22;;;46.67;;
52043;SDS011;38053;53.100;6.078;2022-11-15T06:02:13;125.28;;;51.20;;
52043;SDS011;38053;53.100;6.078;2022-11-15T06:04:39;125.10;;;49.97;;
52043;SDS011;38053;53.100;6.078;2022-11-15T06:07:04;131.98;;;48.05;;
52043;SDS011;38053;53.100;6.078;2022-11-15T06:09:30;138.50;;;52.50;;
52043;SDS011;38053;53.100;6.078;2022-11-15T06:11:56;133.88;;;47.58;;
52043;SDS011;38053;53.100;6.078;2022-11-15T06:14:22;140.90;;;49.22;;
52043;SDS011;38053;53.100;6.078;2022-11-15T06:16:47;118.70;;;46.13;;
52043;SDS011;38053;53.100;6.078;2022-11-15T06:19:13;120.72;;;47.83;;
52043;SDS011;38053;53.100;6.078;2022-11-15T06:21:39;127.30;;;47.00;;
52043;SDS011;38053;53.100;6.078;2022-11-15T06:24:05;116.28;;;44.17;;
52043;SDS011;38053;53.100;6.078;2022-11-15T06:26:31;114.53;;;45.72;;
52043;SDS011;38053;53.100;6.078;2022-11-15T06:29:01;128.27;;;46.63;;
52043;SDS011;38053;53.100;6.078;2022-11-15T06:31:28;100.88;;;44.65;;
52043;SDS011;38053;53.100;6.078;2022-11-15T06:33:53;102.15;;;45.17;;
52043;SDS011;38053;53.100;6.078;2022-11-15T06:36:19;111.80;;;45.03;;
52043;SDS011;38053;53.100;6.078;2022-11-15T06:38:45;117.43;;;47.78;;
52043;SDS011;38053;53.100;6.078;2022-11-15T06:41:12;118.53;;;44.33;;
52043;SDS011;38053;53.100;6.078;2022-11-15T06:43:39;117.20;;;45.22;;
52043;SDS011;38053;53.100;6.078;2022-11-15T06:46:05;116.95;;;46.83;;
52043;SDS011;38053;53.100;6.078;2022-11-15T06:48:32;103.55;;;45.47;;
52043;SDS011;38053;53.100;6.078;2022-11-15T06:50:59;106.78;;;45.47;;
52043;SDS011;38053;53.100;6.078;2022-11-15T06:53:29;111.82;;;47.53;;
52043;SDS011;38053;53.100;6.078;2022-11-15T06:56:02;112.35;;;47.15;;
52043;SDS011;38053;53.100;6.078;2022-11-15T06:58:29;121.72;;;45.55;;
52043;SDS011;38053;53.100;6.078;2022-11-15T07:00:59;108.13;;;46.70;;
52043;SDS011;38053;53.100;6.078;2022-11-15T07:03:28;102.25;;;46.53;;
52043;SDS011;38053;53.100;6.078;2022-11-15T07:05:55;107.45;;;45.72;;
52043;SDS011;38053;53.100;6.078;2022-11-15T07:08:22;117.82;;;46.60;;
52043;SDS011;38053;53.100;6.078;2022-11-15T07:10:48;115.32;;;46.85;;
52043;SDS011;38053;53.100;6.078;2022-11-15T07:13:15;98.57;;;46.65;;
52043;SDS011;38053;53.100;6.078;2022-11-15T07:15:40;105.07;;;44.40;;
52043;SDS011;38053;53.100;6.078;2022-11-15T07:18:06;101.35;;;47.10;;
52043;SDS011;38053;53.100;6.078;2022-11-15T07:20:34;99.88;;;45.17;;
52043;SDS011;38053;53.100;6.078;2022-11-15T07:23:01;96.15;;;45.50;;
52043;SDS011;38053;53.100;6.078;2022-11-15T07:25:28;107.65;;;45.10;;
52043;SDS011;38053;53.100;6.078;2022-11-15T07:27:54;98.53;;;45.25;;
52043;SDS011;38053;53.100;6.078;2022-11-15T07:30:20;99.38;;;45.17;;
52043;SDS011;38053;53.100;6.078;2022-11-15T07:32:46;104.35;;;44.53;;
52043;SDS011;38053;53.100;6.078;2022-11-15T07:35:12;90.45;;;43.25;;
52043;SDS011;38053;53.100;6.078;2022-11-15T07:37:38;82.30;;;39.92;;
52043;SDS011;38053;53.100;6.078;2022-11-15T07:40:03;85.63;;;41.55;;
52043;SDS011;38053;53.100;6.078;2022-11-15T07:42:33;84.10;;;43.05;;
52043;SDS011;38053;53.100;6.078;2022-11-15T07:45:17;83.97;;;41.08;;
52043;SDS011;38053;53.100;6.078;2022-11-15T07:47:46;92.78;;;40.10;;
52043;SDS011;38053;53.100;6.078;2022-11-15T07:50:13;78.13;;;38.83;;
52043;SDS011;38053;53.100;6.078;2022-11-15T07:52:39;81.10;;;39.65;;
52043;SDS011;38053;53.100;6.078;2022-11-15T07:55:05;69.45;;;38.63;;
52043;SDS011;38053;53.100;6.078;2022-11-15T07:57:31;69.50;;;37.30;;
52043;SDS011;38053;53.100;6.078;2022-11-15T07:59:57;81.68;;;38.72;;
52043;SDS011;38053;53.100;6.078;2022-11-15T08:02:23;77.38;;;38.33;;
52043;SDS011;38053;53.100;6.078;2022-11-15T08:04:48;67.68;;;39.10;;
52043;SDS011;38053;53.100;6.078;2022-11-15T08:07:14;72.85;;;37.15;;
52043;SDS011;38053;53.100;6.078;2022-11-15T08:09:40;68.78;;;38.38;;
52043;SDS011;38053;53.100;6.078;2022-11-15T08:12:06;63.67;;;37.05;;
52043;SDS011;38053;53.100;6.078;2022-11-15T08:14:32;72.82;;;37.97;;
52043;SDS011;38053;53.100;6.078;2022-11-15T08:16:57;65.70;;;36.40;;
52043;SDS011;38053;53.100;6.078;2022-11-15T08:19:23;60.42;;;35.13;;
52043;SDS011;38053;53.100;6.078;2022-11-15T08:21:49;62.90;;;35.65;;
52043;SDS011;38053;53.100;6.078;2022-11-15T08:24:15;65.70;;;37.17;;
52043;SDS011;38053;53.100;6.078;2022-11-15T08:26:41;62.78;;;36.72;;
52043;SDS011;38053;53.100;6.078;2022-11-15T08:29:07;64.22;;;35.30;;
52043;SDS011;38053;53.100;6.078;2022-11-15T08:31:33;65.07;;;35.67;;
52043;SDS011;38053;53.100;6.078;2022-11-15T08:34:04;53.58;;;33.97;;
52043;SDS011;38053;53.100;6.078;2022-11-15T08:36:31;54.30;;;33.85;;
52043;SDS011;38053;53.100;6.078;2022-11-15T08:38:57;54.92;;;32.63;;
52043;SDS011;38053;53.100;6.078;2022-11-15T08:41:26;53.67;;;31.38;;
52043;SDS011;38053;53.100;6.078;2022-11-15T08:43:55;55.53;;;33.95;;
52043;SDS011;38053;53.100;6.078;2022-11-15T08:46:21;50.15;;;33.33;;
52043;SDS011;38053;53.100;6.078;2022-11-15T08:48:48;46.47;;;31.13;;
52043;SDS011;38053;53.100;6.078;2022-11-15T08:51:14;48.35;;;30.58;;
52043;SDS011;38053;53.100;6.078;2022-11-15T08:53:40;48.40;;;32.30;;
52043;SDS011;38053;53.100;6.078;2022-11-15T08:56:07;47.08;;;31.92;;
52043;SDS011;38053;53.100;6.078;2022-11-15T08:58:34;45.78;;;30.15;;
52043;SDS011;38053;53.100;6.078;2022-11-15T09:01:00;53.25;;;30.35;;
52043;SDS011;38053;53.100;6.078;2022-11-15T09:03:26;42.75;;;28.83;;
52043;SDS011;38053;53.100;6.078;2022-11-15T09:05:58;42.97;;;28.58;;
52043;SDS011;38053;53.100;6.078;2022-11-15T09:08:26;45.15;;;30.70;;
52043;SDS011;38053;53.100;6.078;2022-11-15T09:10:55;51.60;;;28.92;;
52043;SDS011;38053;53.100;6.078;2022-11-15T09:13:21;47.60;;;27.00;;
52043;SDS011;38053;53.100;6.078;2022-11-15T09:15:50;39.13;;;27.55;;
52043;SDS011;38053;53.100;6.078;2022-11-15T09:18:16;39.38;;;27.25;;
52043;SDS011;38053;53.100;6.078;2022-11-15T09:20:42;40.15;;;29.35;;
52043;SDS011;38053;53.100;6.078;2022-11-15T09:23:07;41.47;;;28.10;;
52043;SDS011;38053;53.100;6.078;2022-11-15T09:25:33;41.65;;;25.98;;
52043;SDS011;38053;53.100;6.078;2022-11-15T09:27:59;44.35;;;27.95;;
52043;SDS011;38053;53.100;6.078;2022-11-15T09:30:25;36.78;;;26.88;;
52043;SDS011;38053;53.100;6.078;2022-11-15T09:32:50;41.83;;;26.25;;
52043;SDS011;38053;53.100;6.078;2022-11-15T09:35:16;35.67;;;25.65;;
52043;SDS011;38053;53.100;6.078;2022-11-15T09:37:42;40.88;;;26.30;;
52043;SDS011;38053;53.100;6.078;2022-11-15T09:40:09;44.67;;;26.90;;
52043;SDS011;38053;53.100;6.078;2022-11-15T09:45:23;35.13;;;24.67;;
52043;SDS011;38053;53.100;6.078;2022-11-15T09:50:58;32.47;;;24.13;;
52043;SDS011;38053;53.100;6.078;2022-11-15T09:56:03;36.70;;;23.83;;
52043;SDS011;38053;53.100;6.078;2022-11-15T10:04:36;36.55;;;23.73;;
52043;SDS011;38053;53.100;6.078;2022-11-15T10:07:05;35.97;;;23.02;;
52043;SDS011;38053;53.100;6.078;2022-11-15T10:09:42;31.60;;;23.13;;
52043;SDS011;38053;53.100;6.078;2022-11-15T10:12:13;36.65;;;23.30;;
52043;SDS011;38053;53.100;6.078;2022-11-15T10:14:39;36.85;;;23.55;;
52043;SDS011;38053;53.100;6.078;2022-11-15T10:19:40;34.35;;;21.33;;
52043;SDS011;38053;53.100;6.078;2022-11-15T10:22:50;30.48;;;19.40;;
52043;SDS011;38053;53.100;6.078;2022-11-15T10:28:03;30.80;;;20.55;;
52043;SDS011;38053;53.100;6.078;2022-11-15T10:30:42;31.88;;;19.90;;
52043;SDS011;38053;53.100;6.078;2022-11-15T10:35:41;30.42;;;20.25;;
52043;SDS011;38053;53.100;6.078;2022-11-15T10:38:08;29.23;;;19.73;;
52043;SDS011;38053;53.100;6.078;2022-11-15T10:40:36;29.73;;;19.88;;
52043;SDS011;38053;53.100;6.078;2022-11-15T10:43:04;33.80;;;20.00;;
52043;SDS011;38053;53.100;6.078;2022-11-15T10:45:39;28.33;;;19.38;;
52043;SDS011;38053;53.100;6.078;2022-11-15T10:50:37;29.77;;;18.65;;
52043;SDS011;38053;53.100;6.078;2022-11-15T10:53:04;28.85;;;18.92;;
52043;SDS011;38053;53.100;6.078;2022-11-15T10:55:58;29.40;;;18.00;;
52043;SDS011;38053;53.100;6.078;2022-11-15T11:03:39;27.55;;;16.40;;
52043;SDS011;38053;53.100;6.078;2022-11-15T11:06:10;30.95;;;17.02;;
52043;SDS011;38053;53.100;6.078;2022-11-15T11:08:57;24.75;;;15.07;;
52043;SDS011;38053;53.100;6.078;2022-11-15T11:11:46;24.42;;;14.52;;
52043;SDS011;38053;53.100;6.078;2022-11-15T11:14:23;26.90;;;16.17;;
52043;SDS011;38053;53.100;6.078;2022-11-15T11:34:36;16.15;;;10.85;;
52043;SDS011;38053;53.100;6.078;2022-11-15T11:37:27;21.98;;;11.07;;
52043;SDS011;38053;53.100;6.078;2022-11-15T11:45:39;18.08;;;10.68;;
52043;SDS011;38053;53.100;6.078;2022-11-15T11:48:42;10.80;;;7.88;;
52043;SDS011;38053;53.100;6.078;2022-11-15T11:53:57;14.95;;;7.47;;
52043;SDS011;38053;53.100;6.078;2022-11-15T11:56:34;15.10;;;7.55;;
52043;SDS011;38053;53.100;6.078;2022-11-15T11:59:10;14.52;;;7.53;;
52043;SDS011;38053;53.100;6.078;2022-11-15T12:01:56;10.55;;;6.50;;
52043;SDS011;38053;53.100;6.078;2022-11-15T12:04:29;10.85;;;6.90;;
52043;SDS011;38053;53.100;6.078;2022-11-15T12:15:12;10.75;;;7.35;;
52043;SDS011;38053;53.100;6.078;2022-11-15T12:17:45;11.90;;;6.60;;
52043;SDS011;38053;53.100;6.078;2022-11-15T12:20:22;11.75;;;7.00;;
52043;SDS011;38053;53.100;6.078;2022-11-15T12:22:57;11.02;;;6.57;;
52043;SDS011;38053;53.100;6.078;2022-11-15T12:31:21;12.80;;;5.93;;
52043;SDS011;38053;53.100;6.078;2022-11-15T12:33:56;14.63;;;6.35;;
52043;SDS011;38053;53.100;6.078;2022-11-15T12:38:53;12.23;;;5.97;;
52043;SDS011;38053;53.100;6.078;2022-11-15T12:41:28;10.57;;;5.15;;
52043;SDS011;38053;53.100;6.078;2022-11-15T12:43:58;9.98;;;5.18;;
52043;SDS011;38053;53.100;6.078;2022-11-15T13:02:23;5.95;;;3.38;;
52043;SDS011;38053;53.100;6.078;2022-11-15T13:04:55;10.20;;;3.35;;
52043;SDS011;38053;53.100;6.078;2022-11-15T13:27:50;5.05;;;3.20;;
52043;SDS011;38053;53.100;6.078;2022-11-15T13:30:29;7.57;;;3.33;;
52043;SDS011;38053;53.100;6.078;2022-11-15T13:32:56;5.80;;;3.03;;
52043;SDS011;38053;53.100;6.078;2022-11-15T13:35:31;6.15;;;3.60;;
52043;SDS011;38053;53.100;6.078;2022-11-15T13:38:17;6.03;;;2.88;;
52043;SDS011;38053;53.100;6.078;2022-11-15T13:40:53;6.68;;;2.75;;
52043;SDS011;38053;53.100;6.078;2022-11-15T13:43:27;4.93;;;2.60;;
52043;SDS011;38053;53.100;6.078;2022-11-15T13:49:03;7.07;;;3.83;;
52043;SDS011;38053;53.100;6.078;2022-11-15T13:54:19;5.30;;;3.03;;
52043;SDS011;38053;53.100;6.078;2022-11-15T14:00:05;5.93;;;3.38;;
52043;SDS011;38053;53.100;6.078;2022-11-15T14:02:54;5.57;;;2.55;;
52043;SDS011;38053;53.100;6.078;2022-11-15T14:07:56;6.70;;;2.50;;
52043;SDS011;38053;53.100;6.078;2022-11-15T14:10:27;4.88;;;2.13;;
52043;SDS011;38053;53.100;6.078;2022-11-15T14:13:01;14.27;;;2.58;;
52043;SDS011;38053;53.100;6.078;2022-11-15T14:15:35;10.18;;;2.40;;
52043;SDS011;38053;53.100;6.078;2022-11-15T14:18:04;10.77;;;2.55;;
52043;SDS011;38053;53.100;6.078;2022-11-15T14:20:40;5.97;;;2.35;;
52043;SDS011;38053;53.100;6.078;2022-11-15T14:23:19;6.90;;;2.55;;
52043;SDS011;38053;53.100;6.078;2022-11-15T14:25:55;7.15;;;3.20;;
52043;SDS011;38053;53.100;6.078;2022-11-15T14:28:32;9.25;;;3.13;;
52043;SDS011;38053;53.100;6.078;2022-11-15T14:31:07;7.32;;;2.72;;
52043;SDS011;38053;53.100;6.078;2022-11-15T14:33:49;7.00;;;2.47;;
52043;SDS011;38053;53.100;6.078;2022-11-15T14:36:19;5.68;;;2.33;;
52043;SDS011;38053;53.100;6.078;2022-11-15T14:38:54;7.13;;;2.90;;
52043;SDS011;38053;53.100;6.078;2022-11-15T14:41:21;5.65;;;2.70;;
52043;SDS011;38053;53.100;6.078;2022-11-15T14:43:49;5.22;;;1.90;;
52043;SDS011;38053;53.100;6.078;2022-11-15T14:46:24;9.00;;;2.72;;
52043;SDS011;38053;53.100;6.078;2022-11-15T14:48:50;7.80;;;2.25;;
52043;SDS011;38053;53.100;6.078;2022-11-15T14:51:22;11.25;;;3.25;;
52043;SDS011;38053;53.100;6.078;2022-11-15T14:53:51;10.07;;;2.03;;
52043;SDS011;38053;53.100;6.078;2022-11-15T14:56:20;4.25;;;1.90;;
52043;SDS011;38053;53.100;6.078;2022-11-15T14:58:52;5.90;;;2.17;;
52043;SDS011;38053;53.100;6.078;2022-11-15T15:01:38;6.05;;;1.90;;
52043;SDS011;38053;53.100;6.078;2022-11-15T15:04:12;3.85;;;1.67;;
52043;SDS011;38053;53.100;6.078;2022-11-15T15:06:53;5.68;;;2.38;;
52043;SDS011;38053;53.100;6.078;2022-11-15T15:09:19;9.35;;;2.72;;
52043;SDS011;38053;53.100;6.078;2022-11-15T15:11:47;5.82;;;1.92;;
52043;SDS011;38053;53.100;6.078;2022-11-15T15:14:22;5.13;;;1.90;;
52043;SDS011;38053;53.100;6.078;2022-11-15T15:16:56;5.35;;;1.77;;
52043;SDS011;38053;53.100;6.078;2022-11-15T15:19:25;7.35;;;2.20;;
52043;SDS011;38053;53.100;6.078;2022-11-15T15:21:50;7.47;;;2.63;;
52043;SDS011;38053;53.100;6.078;2022-11-15T15:24:19;6.63;;;3.35;;
52043;SDS011;38053;53.100;6.078;2022-11-15T15:27:13;6.82;;;2.85;;
52043;SDS011;38053;53.100;6.078;2022-11-15T15:29:45;8.45;;;2.85;;
52043;SDS011;38053;53.100;6.078;2022-11-15T15:35:10;3.67;;;1.50;;
52043;SDS011;38053;53.100;6.078;2022-11-15T15:37:47;6.07;;;2.00;;
52043;SDS011;38053;53.100;6.078;2022-11-15T15:43:18;6.75;;;2.47;;
52043;SDS011;38053;53.100;6.078;2022-11-15T15:48:51;6.22;;;2.28;;
52043;SDS011;38053;53.100;6.078;2022-11-15T15:51:24;5.05;;;2.17;;
52043;SDS011;38053;53.100;6.078;2022-11-15T15:53:55;3.38;;;2.05;;
52043;SDS011;38053;53.100;6.078;2022-11-15T15:56:45;4.72;;;1.88;;
52043;SDS011;38053;53.100;6.078;2022-11-15T15:59:10;5.95;;;1.83;;
52043;SDS011;38053;53.100;6.078;2022-11-15T16:01:36;4.55;;;2.00;;
52043;SDS011;38053;53.100;6.078;2022-11-15T16:04:02;5.63;;;2.10;;
52043;SDS011;38053;53.100;6.078;2022-11-15T16:09:26;8.63;;;2.78;;
52043;SDS011;38053;53.100;6.078;2022-11-15T16:12:20;7.38;;;3.47;;
52043;SDS011;38053;53.100;6.078;2022-11-15T16:17:35;6.22;;;3.97;;
52043;SDS011;38053;53.100;6.078;2022-11-15T16:20:12;10.95;;;4.03;;
52043;SDS011;38053;53.100;6.078;2022-11-15T16:23:15;7.60;;;3.95;;
52043;SDS011;38053;53.100;6.078;2022-11-15T16:25:54;9.13;;;4.00;;
52043;SDS011;38053;53.100;6.078;2022-11-15T16:28:25;11.50;;;4.60;;
52043;SDS011;38053;53.100;6.078;2022-11-15T16:33:34;8.85;;;5.25;;
52043;SDS011;38053;53.100;6.078;2022-11-15T16:36:05;7.43;;;5.20;;
52043;SDS011;38053;53.100;6.078;2022-11-15T16:38:42;8.65;;;5.43;;
52043;SDS011;38053;53.100;6.078;2022-11-15T16:41:10;10.77;;;5.25;;
52043;SDS011;38053;53.100;6.078;2022-11-15T16:43:36;11.50;;;6.22;;
52043;SDS011;38053;53.100;6.078;2022-11-15T16:46:06;10.57;;;7.10;;
52043;SDS011;38053;53.100;6.078;2022-11-15T16:48:37;9.98;;;5.72;;
52043;SDS011;38053;53.100;6.078;2022-11-15T16:51:04;10.48;;;6.22;;
52043;SDS011;38053;53.100;6.078;2022-11-15T16:53:30;10.10;;;6.97;;
52043;SDS011;38053;53.100;6.078;2022-11-15T16:58:55;11.23;;;6.55;;
52043;SDS011;38053;53.100;6.078;2022-11-15T17:01:29;9.93;;;6.30;;
52043;SDS011;38053;53.100;6.078;2022-11-15T17:07:22;9.65;;;5.13;;
52043;SDS011;38053;53.100;6.078;2022-11-15T17:09:55;11.27;;;5.60;;
52043;SDS011;38053;53.100;6.078;2022-11-15T17:12:24;7.50;;;5.15;;
52043;SDS011;38053;53.100;6.078;2022-11-15T17:14:57;10.52;;;6.20;;
52043;SDS011;38053;53.100;6.078;2022-11-15T17:17:23;9.35;;;5.70;;
52043;SDS011;38053;53.100;6.078;2022-11-15T17:19:53;6.88;;;4.65;;
52043;SDS011;38053;53.100;6.078;2022-11-15T17:22:24;7.20;;;4.45;;
52043;SDS011;38053;53.100;6.078;2022-11-15T17:25:18;8.60;;;4.00;;
52043;SDS011;38053;53.100;6.078;2022-11-15T17:27:50;9.85;;;4.68;;
52043;SDS011;38053;53.100;6.078;2022-11-15T17:30:19;11.20;;;4.38;;
52043;SDS011;38053;53.100;6.078;2022-11-15T17:33:05;11.07;;;3.90;;
52043;SDS011;38053;53.100;6.078;2022-11-15T17:35:36;7.05;;;4.00;;
52043;SDS011;38053;53.100;6.078;2022-11-15T17:38:07;8.70;;;4.13;;
52043;SDS011;38053;53.100;6.078;2022-11-15T17:40:36;6.05;;;3.53;;
52043;SDS011;38053;53.100;6.078;2022-11-15T17:43:07;7.78;;;3.20;;
52043;SDS011;38053;53.100;6.078;2022-11-15T17:45:39;7.88;;;3.22;;
52043;SDS011;38053;53.100;6.078;2022-11-15T17:48:08;8.00;;;3.05;;
52043;SDS011;38053;53.100;6.078;2022-11-15T17:50:40;4.88;;;2.80;;